Pagrindinis puslapis
METAR-TAF:

METAR-TAF

Oro uostai :

Rio Grandė, Argentina

platuma: 53-48S, ilguma: 067-45W, Aukštis: 13 m

Dabartinis oras

Ataskaita buvo paskelbta 1 valandą ir 23 minutes, ne 22:00 UTC
Vėjas 23 kt iš Vakarų/Pietvakarių su gūsio iki 33 kt
Temperatūra 20°C
Drėgmė 56%
Slėgis 1017 hPa
Matomumas 10 km arba daugiau
nėra debesų žemiau 1500 m ir nėra kamuolinių lietaus debesų

METAR: SAWE 212200Z 25023G33KT CAVOK 20/11 Q1017

Laikas: 20:23 (23:23 UTC)

Prognozė

Ataskaita buvo paskelbta 6 valandos ir 23 minutes, ne 17:00 UTC
Prognozė galioja nuo 21 metu 18 UTC su 22 metu 18 UTC
Vėjas 15 kt iš Vakarų/Pietvakarių su gūsio iki 30 kt
Matomumas 10 km arba daugiau
nėra debesų žemiau 1500 m ir nėra kamuolinių lietaus debesų
Tapsmas
nuo 22 metu 01 UTC su 22 metu 03 UTC
Vėjas 15 kt iš Vakarų

TAF: SAWE 211700Z 2118/2218 25015G30KT CAVOK TX23/2118Z TN10/2210Z BECMG 2201/2203 27015KT

Orai ataskaitas ir orų prognozės (METAR, TAF).

turimą stotys yra geltonos ir raudonos taškus žemėlapyje.

Perkelti pele per norėdami pamatyti stoties vardą.

Tada spustelėkite, norėdami matyti oro stebėjimo ir prognozės.

Norėdami pakeisti žemėlapį: spustelėkite ant žalios mygtukų su juodo kryžiaus žemyn,; žalią mygtuką su brūkšneliu, jei norite nutolinti; arba žalių rodyklių gretimoms žemėlapius.


METAR-TAF: